Atlanta, Georgia
Traffic Map
Current Weather Conditions
Atlanta, Georgia
Broken Clouds
Broken Clouds

Feels Like: 6°
Wind Chill: Ceiling: 15000
Heat Index: Visibility: 10mi
Dew Point: -3° Wind: 6mph
Humidity: 47% Direction: 50° (NE)
Pressure: 30.12in Gusts: 0mph
Raw Report DataKATL 121552Z 05005KT 10SM FEW100 BKN150 BKN180 08/M03 A3012 RMK AO2 SLP204 T00781028
Traffic Incident Summary
Active as of:
Severity:
Category:
InformationThere was an issue retrieving the traffic information for this location. Please try a different location or try again shortly.
Advertisements
Track Severe Weather on mobile